sensor_id;sensor_type;location;lat;lon;timestamp;P1;durP1;ratioP1;P2;durP2;ratioP2
6127;SDS011;7073;42.672;23.256;2024-01-15T00:00:16;42.30;;;17.60;;
6127;SDS011;7073;42.672;23.256;2024-01-15T00:13:25;35.55;;;13.85;;
6127;SDS011;7073;42.672;23.256;2024-01-15T00:15:54;29.08;;;13.25;;
6127;SDS011;7073;42.672;23.256;2024-01-15T00:18:21;37.20;;;16.05;;
6127;SDS011;7073;42.672;23.256;2024-01-15T00:20:48;44.38;;;16.98;;
6127;SDS011;7073;42.672;23.256;2024-01-15T00:23:16;38.15;;;16.90;;
6127;SDS011;7073;42.672;23.256;2024-01-15T00:25:45;38.97;;;16.35;;
6127;SDS011;7073;42.672;23.256;2024-01-15T00:28:12;36.80;;;16.42;;
6127;SDS011;7073;42.672;23.256;2024-01-15T00:30:41;33.40;;;14.73;;
6127;SDS011;7073;42.672;23.256;2024-01-15T00:33:28;34.42;;;14.27;;
6127;SDS011;7073;42.672;23.256;2024-01-15T00:36:13;27.65;;;12.55;;
6127;SDS011;7073;42.672;23.256;2024-01-15T00:39:49;13.98;;;9.35;;
6127;SDS011;7073;42.672;23.256;2024-01-15T00:42:50;28.05;;;12.40;;
6127;SDS011;7073;42.672;23.256;2024-01-15T00:48:36;30.40;;;14.50;;
6127;SDS011;7073;42.672;23.256;2024-01-15T00:54:42;34.90;;;14.10;;
6127;SDS011;7073;42.672;23.256;2024-01-15T00:57:29;27.65;;;13.10;;
6127;SDS011;7073;42.672;23.256;2024-01-15T01:00:27;7.93;;;6.90;;
6127;SDS011;7073;42.672;23.256;2024-01-15T01:02:55;33.15;;;14.73;;
6127;SDS011;7073;42.672;23.256;2024-01-15T01:05:24;28.45;;;14.02;;
6127;SDS011;7073;42.672;23.256;2024-01-15T01:07:54;15.25;;;7.60;;
6127;SDS011;7073;42.672;23.256;2024-01-15T01:10:22;27.67;;;13.00;;
6127;SDS011;7073;42.672;23.256;2024-01-15T01:12:50;25.55;;;11.15;;
6127;SDS011;7073;42.672;23.256;2024-01-15T01:23:07;27.45;;;12.15;;
6127;SDS011;7073;42.672;23.256;2024-01-15T01:26:21;19.77;;;9.55;;
6127;SDS011;7073;42.672;23.256;2024-01-15T01:45:36;11.68;;;8.88;;
6127;SDS011;7073;42.672;23.256;2024-01-15T01:48:08;28.88;;;13.30;;
6127;SDS011;7073;42.672;23.256;2024-01-15T01:50:44;19.92;;;10.02;;
6127;SDS011;7073;42.672;23.256;2024-01-15T01:53:11;29.05;;;12.18;;
6127;SDS011;7073;42.672;23.256;2024-01-15T01:55:38;32.33;;;13.27;;
6127;SDS011;7073;42.672;23.256;2024-01-15T01:58:05;27.90;;;11.95;;
6127;SDS011;7073;42.672;23.256;2024-01-15T02:00:33;32.15;;;13.27;;
6127;SDS011;7073;42.672;23.256;2024-01-15T02:03:03;25.65;;;11.32;;
6127;SDS011;7073;42.672;23.256;2024-01-15T02:05:30;28.35;;;11.98;;
6127;SDS011;7073;42.672;23.256;2024-01-15T02:08:07;32.33;;;12.68;;
6127;SDS011;7073;42.672;23.256;2024-01-15T02:10:39;29.40;;;12.07;;
6127;SDS011;7073;42.672;23.256;2024-01-15T02:13:06;31.70;;;11.40;;
6127;SDS011;7073;42.672;23.256;2024-01-15T02:15:33;29.95;;;13.27;;
6127;SDS011;7073;42.672;23.256;2024-01-15T02:18:01;19.65;;;10.18;;
6127;SDS011;7073;42.672;23.256;2024-01-15T02:20:31;30.13;;;12.13;;
6127;SDS011;7073;42.672;23.256;2024-01-15T02:25:45;26.20;;;12.40;;
6127;SDS011;7073;42.672;23.256;2024-01-15T02:28:18;30.80;;;12.65;;
6127;SDS011;7073;42.672;23.256;2024-01-15T02:31:04;28.02;;;12.32;;
6127;SDS011;7073;42.672;23.256;2024-01-15T02:34:23;27.00;;;10.55;;
6127;SDS011;7073;42.672;23.256;2024-01-15T02:45:32;26.02;;;12.73;;
6127;SDS011;7073;42.672;23.256;2024-01-15T02:47:59;30.48;;;13.15;;
6127;SDS011;7073;42.672;23.256;2024-01-15T02:50:26;22.52;;;10.75;;
6127;SDS011;7073;42.672;23.256;2024-01-15T02:52:55;27.27;;;13.32;;
6127;SDS011;7073;42.672;23.256;2024-01-15T02:55:25;27.75;;;12.23;;
6127;SDS011;7073;42.672;23.256;2024-01-15T02:57:54;28.77;;;12.20;;
6127;SDS011;7073;42.672;23.256;2024-01-15T03:00:21;26.90;;;12.23;;
6127;SDS011;7073;42.672;23.256;2024-01-15T03:02:50;29.42;;;12.13;;
6127;SDS011;7073;42.672;23.256;2024-01-15T03:05:18;25.40;;;11.45;;
6127;SDS011;7073;42.672;23.256;2024-01-15T03:07:45;29.98;;;12.77;;
6127;SDS011;7073;42.672;23.256;2024-01-15T03:10:13;28.77;;;12.20;;
6127;SDS011;7073;42.672;23.256;2024-01-15T03:12:40;21.75;;;10.98;;
6127;SDS011;7073;42.672;23.256;2024-01-15T03:15:07;27.23;;;13.00;;
6127;SDS011;7073;42.672;23.256;2024-01-15T03:17:36;27.58;;;12.25;;
6127;SDS011;7073;42.672;23.256;2024-01-15T03:20:06;28.17;;;12.07;;
6127;SDS011;7073;42.672;23.256;2024-01-15T03:22:33;25.27;;;11.90;;
6127;SDS011;7073;42.672;23.256;2024-01-15T03:25:00;26.27;;;12.30;;
6127;SDS011;7073;42.672;23.256;2024-01-15T03:27:29;28.10;;;11.48;;
6127;SDS011;7073;42.672;23.256;2024-01-15T03:29:56;31.85;;;12.48;;
6127;SDS011;7073;42.672;23.256;2024-01-15T03:32:25;24.92;;;11.30;;
6127;SDS011;7073;42.672;23.256;2024-01-15T03:44:12;30.40;;;12.93;;
6127;SDS011;7073;42.672;23.256;2024-01-15T03:46:45;30.13;;;13.15;;
6127;SDS011;7073;42.672;23.256;2024-01-15T03:49:13;38.75;;;16.60;;
6127;SDS011;7073;42.672;23.256;2024-01-15T03:51:40;29.20;;;13.75;;
6127;SDS011;7073;42.672;23.256;2024-01-15T03:54:07;31.70;;;12.93;;
6127;SDS011;7073;42.672;23.256;2024-01-15T03:56:34;29.70;;;12.68;;
6127;SDS011;7073;42.672;23.256;2024-01-15T03:59:05;31.83;;;14.68;;
6127;SDS011;7073;42.672;23.256;2024-01-15T04:02:07;29.95;;;14.60;;
6127;SDS011;7073;42.672;23.256;2024-01-15T04:04:36;25.60;;;12.00;;
6127;SDS011;7073;42.672;23.256;2024-01-15T04:07:07;31.92;;;14.10;;
6127;SDS011;7073;42.672;23.256;2024-01-15T04:09:35;25.95;;;12.57;;
6127;SDS011;7073;42.672;23.256;2024-01-15T04:12:04;30.13;;;14.20;;
6127;SDS011;7073;42.672;23.256;2024-01-15T04:14:38;33.08;;;14.30;;
6127;SDS011;7073;42.672;23.256;2024-01-15T04:17:05;29.77;;;14.13;;
6127;SDS011;7073;42.672;23.256;2024-01-15T04:19:33;33.22;;;14.77;;
6127;SDS011;7073;42.672;23.256;2024-01-15T04:38:12;57.50;;;26.95;;
6127;SDS011;7073;42.672;23.256;2024-01-15T04:40:45;57.22;;;24.25;;
6127;SDS011;7073;42.672;23.256;2024-01-15T04:53:17;41.15;;;18.33;;
6127;SDS011;7073;42.672;23.256;2024-01-15T04:55:44;55.47;;;20.73;;
6127;SDS011;7073;42.672;23.256;2024-01-15T04:58:11;42.75;;;19.48;;
6127;SDS011;7073;42.672;23.256;2024-01-15T05:00:38;55.58;;;21.58;;
6127;SDS011;7073;42.672;23.256;2024-01-15T05:03:07;44.58;;;18.83;;
6127;SDS011;7073;42.672;23.256;2024-01-15T05:05:36;42.13;;;18.40;;
6127;SDS011;7073;42.672;23.256;2024-01-15T05:08:24;38.45;;;18.10;;
6127;SDS011;7073;42.672;23.256;2024-01-15T05:10:50;48.00;;;20.23;;
6127;SDS011;7073;42.672;23.256;2024-01-15T05:13:22;41.28;;;17.45;;
6127;SDS011;7073;42.672;23.256;2024-01-15T05:15:55;47.63;;;21.02;;
6127;SDS011;7073;42.672;23.256;2024-01-15T05:18:39;48.97;;;23.63;;
6127;SDS011;7073;42.672;23.256;2024-01-15T05:21:10;46.72;;;20.73;;
6127;SDS011;7073;42.672;23.256;2024-01-15T05:24:11;44.80;;;21.52;;
6127;SDS011;7073;42.672;23.256;2024-01-15T05:27:05;48.40;;;21.58;;
6127;SDS011;7073;42.672;23.256;2024-01-15T06:19:44;11.43;;;6.65;;
6127;SDS011;7073;42.672;23.256;2024-01-15T06:23:17;48.05;;;20.48;;
6127;SDS011;7073;42.672;23.256;2024-01-15T06:26:45;25.67;;;14.95;;
6127;SDS011;7073;42.672;23.256;2024-01-15T06:30:06;49.92;;;23.70;;
6127;SDS011;7073;42.672;23.256;2024-01-15T06:33:25;10.88;;;6.47;;
6127;SDS011;7073;42.672;23.256;2024-01-15T06:53:41;44.47;;;21.65;;
6127;SDS011;7073;42.672;23.256;2024-01-15T06:56:08;44.60;;;20.13;;
6127;SDS011;7073;42.672;23.256;2024-01-15T06:58:36;47.28;;;21.02;;
6127;SDS011;7073;42.672;23.256;2024-01-15T07:01:03;57.30;;;22.08;;
6127;SDS011;7073;42.672;23.256;2024-01-15T07:03:31;51.85;;;24.33;;
6127;SDS011;7073;42.672;23.256;2024-01-15T07:06:00;52.85;;;26.77;;
6127;SDS011;7073;42.672;23.256;2024-01-15T07:08:28;55.10;;;28.83;;
6127;SDS011;7073;42.672;23.256;2024-01-15T07:10:56;59.00;;;28.75;;
6127;SDS011;7073;42.672;23.256;2024-01-15T07:13:24;53.60;;;25.05;;
6127;SDS011;7073;42.672;23.256;2024-01-15T07:15:50;60.22;;;26.70;;
6127;SDS011;7073;42.672;23.256;2024-01-15T07:18:17;58.92;;;24.83;;
6127;SDS011;7073;42.672;23.256;2024-01-15T07:20:44;50.22;;;23.50;;
6127;SDS011;7073;42.672;23.256;2024-01-15T07:23:11;57.28;;;24.92;;
6127;SDS011;7073;42.672;23.256;2024-01-15T07:25:38;57.90;;;26.10;;
6127;SDS011;7073;42.672;23.256;2024-01-15T07:28:07;56.95;;;24.92;;
6127;SDS011;7073;42.672;23.256;2024-01-15T07:30:35;60.47;;;26.35;;
6127;SDS011;7073;42.672;23.256;2024-01-15T07:33:05;54.05;;;25.20;;
6127;SDS011;7073;42.672;23.256;2024-01-15T07:35:32;56.45;;;25.58;;
6127;SDS011;7073;42.672;23.256;2024-01-15T07:37:59;53.85;;;25.98;;
6127;SDS011;7073;42.672;23.256;2024-01-15T07:40:26;59.88;;;29.38;;
6127;SDS011;7073;42.672;23.256;2024-01-15T07:42:53;61.75;;;28.35;;
6127;SDS011;7073;42.672;23.256;2024-01-15T07:45:23;58.38;;;27.23;;
6127;SDS011;7073;42.672;23.256;2024-01-15T07:47:50;71.20;;;33.03;;
6127;SDS011;7073;42.672;23.256;2024-01-15T07:50:17;59.85;;;27.77;;
6127;SDS011;7073;42.672;23.256;2024-01-15T07:52:44;57.67;;;24.58;;
6127;SDS011;7073;42.672;23.256;2024-01-15T07:55:11;55.50;;;25.05;;
6127;SDS011;7073;42.672;23.256;2024-01-15T07:57:38;56.60;;;26.02;;
6127;SDS011;7073;42.672;23.256;2024-01-15T08:00:06;60.20;;;26.60;;
6127;SDS011;7073;42.672;23.256;2024-01-15T08:02:36;77.57;;;35.67;;
6127;SDS011;7073;42.672;23.256;2024-01-15T08:05:06;67.45;;;32.05;;
6127;SDS011;7073;42.672;23.256;2024-01-15T08:07:33;66.75;;;31.48;;
6127;SDS011;7073;42.672;23.256;2024-01-15T08:10:00;63.00;;;28.80;;
6127;SDS011;7073;42.672;23.256;2024-01-15T08:12:28;77.30;;;34.05;;
6127;SDS011;7073;42.672;23.256;2024-01-15T08:14:55;66.75;;;32.63;;
6127;SDS011;7073;42.672;23.256;2024-01-15T08:17:22;70.10;;;31.52;;
6127;SDS011;7073;42.672;23.256;2024-01-15T08:19:54;74.18;;;31.70;;
6127;SDS011;7073;42.672;23.256;2024-01-15T08:22:21;65.97;;;29.80;;
6127;SDS011;7073;42.672;23.256;2024-01-15T08:27:30;59.25;;;26.92;;
6127;SDS011;7073;42.672;23.256;2024-01-15T08:29:57;65.68;;;30.48;;
6127;SDS011;7073;42.672;23.256;2024-01-15T08:32:24;66.05;;;29.13;;
6127;SDS011;7073;42.672;23.256;2024-01-15T08:34:51;62.33;;;28.45;;
6127;SDS011;7073;42.672;23.256;2024-01-15T08:37:20;77.18;;;34.65;;
6127;SDS011;7073;42.672;23.256;2024-01-15T08:39:46;70.50;;;31.05;;
6127;SDS011;7073;42.672;23.256;2024-01-15T08:42:15;70.80;;;30.77;;
6127;SDS011;7073;42.672;23.256;2024-01-15T08:44:42;73.68;;;34.42;;
6127;SDS011;7073;42.672;23.256;2024-01-15T08:47:09;61.67;;;27.20;;
6127;SDS011;7073;42.672;23.256;2024-01-15T08:49:36;71.93;;;33.03;;
6127;SDS011;7073;42.672;23.256;2024-01-15T08:52:03;60.05;;;28.73;;
6127;SDS011;7073;42.672;23.256;2024-01-15T08:54:31;41.80;;;19.52;;
6127;SDS011;7073;42.672;23.256;2024-01-15T08:56:58;59.28;;;26.33;;
6127;SDS011;7073;42.672;23.256;2024-01-15T08:59:26;59.08;;;26.13;;
6127;SDS011;7073;42.672;23.256;2024-01-15T09:01:53;53.35;;;25.77;;
6127;SDS011;7073;42.672;23.256;2024-01-15T09:04:22;43.05;;;20.65;;
6127;SDS011;7073;42.672;23.256;2024-01-15T09:06:49;50.90;;;24.10;;
6127;SDS011;7073;42.672;23.256;2024-01-15T09:09:16;51.58;;;24.00;;
6127;SDS011;7073;42.672;23.256;2024-01-15T09:11:45;44.67;;;21.30;;
6127;SDS011;7073;42.672;23.256;2024-01-15T09:14:12;41.60;;;18.92;;
6127;SDS011;7073;42.672;23.256;2024-01-15T09:16:40;39.70;;;18.65;;
6127;SDS011;7073;42.672;23.256;2024-01-15T09:21:55;38.85;;;17.42;;
6127;SDS011;7073;42.672;23.256;2024-01-15T09:24:33;37.70;;;17.33;;
6127;SDS011;7073;42.672;23.256;2024-01-15T09:27:05;34.75;;;17.95;;
6127;SDS011;7073;42.672;23.256;2024-01-15T09:29:36;39.38;;;18.23;;
6127;SDS011;7073;42.672;23.256;2024-01-15T09:32:10;42.50;;;19.98;;
6127;SDS011;7073;42.672;23.256;2024-01-15T09:34:37;37.13;;;16.67;;
6127;SDS011;7073;42.672;23.256;2024-01-15T09:37:06;38.30;;;17.42;;
6127;SDS011;7073;42.672;23.256;2024-01-15T09:39:36;38.58;;;18.48;;
6127;SDS011;7073;42.672;23.256;2024-01-15T09:42:08;41.22;;;19.65;;
6127;SDS011;7073;42.672;23.256;2024-01-15T09:44:37;47.17;;;19.70;;
6127;SDS011;7073;42.672;23.256;2024-01-15T09:47:05;41.83;;;19.02;;
6127;SDS011;7073;42.672;23.256;2024-01-15T09:49:35;48.00;;;22.95;;
6127;SDS011;7073;42.672;23.256;2024-01-15T09:52:11;58.03;;;26.17;;
6127;SDS011;7073;42.672;23.256;2024-01-15T09:54:40;51.05;;;24.13;;
6127;SDS011;7073;42.672;23.256;2024-01-15T09:57:11;43.92;;;20.35;;
6127;SDS011;7073;42.672;23.256;2024-01-15T09:59:38;37.38;;;16.98;;
6127;SDS011;7073;42.672;23.256;2024-01-15T10:02:14;34.58;;;16.70;;
6127;SDS011;7073;42.672;23.256;2024-01-15T10:04:45;40.25;;;19.67;;
6127;SDS011;7073;42.672;23.256;2024-01-15T10:07:12;34.35;;;17.55;;
6127;SDS011;7073;42.672;23.256;2024-01-15T10:09:42;31.88;;;16.52;;
6127;SDS011;7073;42.672;23.256;2024-01-15T10:12:12;34.95;;;17.13;;
6127;SDS011;7073;42.672;23.256;2024-01-15T10:14:40;41.05;;;19.40;;
6127;SDS011;7073;42.672;23.256;2024-01-15T10:17:11;44.63;;;21.85;;
6127;SDS011;7073;42.672;23.256;2024-01-15T10:19:40;55.53;;;25.60;;
6127;SDS011;7073;42.672;23.256;2024-01-15T10:22:08;38.95;;;19.83;;
6127;SDS011;7073;42.672;23.256;2024-01-15T10:24:37;46.92;;;22.25;;
6127;SDS011;7073;42.672;23.256;2024-01-15T10:27:04;39.75;;;21.02;;
6127;SDS011;7073;42.672;23.256;2024-01-15T10:29:34;48.88;;;23.95;;
6127;SDS011;7073;42.672;23.256;2024-01-15T10:32:01;42.17;;;21.40;;
6127;SDS011;7073;42.672;23.256;2024-01-15T10:34:30;39.30;;;18.17;;
6127;SDS011;7073;42.672;23.256;2024-01-15T10:36:57;43.13;;;20.40;;
6127;SDS011;7073;42.672;23.256;2024-01-15T10:39:24;41.85;;;22.55;;
6127;SDS011;7073;42.672;23.256;2024-01-15T10:41:51;37.97;;;19.40;;
6127;SDS011;7073;42.672;23.256;2024-01-15T10:44:18;44.33;;;21.70;;
6127;SDS011;7073;42.672;23.256;2024-01-15T10:46:46;41.40;;;21.80;;
6127;SDS011;7073;42.672;23.256;2024-01-15T10:49:14;40.22;;;21.30;;
6127;SDS011;7073;42.672;23.256;2024-01-15T10:51:41;36.05;;;19.60;;
6127;SDS011;7073;42.672;23.256;2024-01-15T10:54:09;45.47;;;23.58;;
6127;SDS011;7073;42.672;23.256;2024-01-15T10:56:37;49.58;;;23.70;;
6127;SDS011;7073;42.672;23.256;2024-01-15T10:59:05;47.38;;;22.48;;
6127;SDS011;7073;42.672;23.256;2024-01-15T11:01:35;46.92;;;23.13;;
6127;SDS011;7073;42.672;23.256;2024-01-15T11:04:05;46.22;;;23.20;;
6127;SDS011;7073;42.672;23.256;2024-01-15T11:06:40;50.10;;;25.38;;
6127;SDS011;7073;42.672;23.256;2024-01-15T11:09:08;48.92;;;21.80;;
6127;SDS011;7073;42.672;23.256;2024-01-15T11:11:35;42.10;;;21.33;;
6127;SDS011;7073;42.672;23.256;2024-01-15T11:14:06;31.25;;;16.92;;
6127;SDS011;7073;42.672;23.256;2024-01-15T11:19:25;33.58;;;16.50;;
6127;SDS011;7073;42.672;23.256;2024-01-15T11:22:01;34.92;;;16.42;;
6127;SDS011;7073;42.672;23.256;2024-01-15T11:24:34;30.88;;;15.02;;
6127;SDS011;7073;42.672;23.256;2024-01-15T11:27:04;33.45;;;14.43;;
6127;SDS011;7073;42.672;23.256;2024-01-15T11:29:31;33.65;;;15.10;;
6127;SDS011;7073;42.672;23.256;2024-01-15T11:32:00;26.15;;;13.18;;
6127;SDS011;7073;42.672;23.256;2024-01-15T11:40:37;34.85;;;14.48;;
6127;SDS011;7073;42.672;23.256;2024-01-15T11:43:07;30.52;;;13.65;;
6127;SDS011;7073;42.672;23.256;2024-01-15T11:45:35;33.50;;;14.25;;
6127;SDS011;7073;42.672;23.256;2024-01-15T11:48:09;28.77;;;14.45;;
6127;SDS011;7073;42.672;23.256;2024-01-15T11:50:40;30.80;;;14.93;;
6127;SDS011;7073;42.672;23.256;2024-01-15T11:53:21;34.28;;;15.55;;
6127;SDS011;7073;42.672;23.256;2024-01-15T11:55:59;30.83;;;14.98;;
6127;SDS011;7073;42.672;23.256;2024-01-15T11:58:30;32.53;;;15.73;;
6127;SDS011;7073;42.672;23.256;2024-01-15T12:00:59;32.22;;;16.95;;
6127;SDS011;7073;42.672;23.256;2024-01-15T12:03:26;35.95;;;16.92;;
6127;SDS011;7073;42.672;23.256;2024-01-15T12:05:54;36.55;;;15.88;;
6127;SDS011;7073;42.672;23.256;2024-01-15T12:08:21;36.75;;;16.63;;
6127;SDS011;7073;42.672;23.256;2024-01-15T12:10:48;34.13;;;16.27;;
6127;SDS011;7073;42.672;23.256;2024-01-15T12:13:16;33.85;;;15.70;;
6127;SDS011;7073;42.672;23.256;2024-01-15T12:15:44;37.72;;;18.25;;
6127;SDS011;7073;42.672;23.256;2024-01-15T12:18:12;33.65;;;16.90;;
6127;SDS011;7073;42.672;23.256;2024-01-15T12:20:41;36.10;;;18.00;;
6127;SDS011;7073;42.672;23.256;2024-01-15T12:23:10;35.05;;;16.15;;
6127;SDS011;7073;42.672;23.256;2024-01-15T12:25:38;27.45;;;13.50;;
6127;SDS011;7073;42.672;23.256;2024-01-15T12:28:06;40.75;;;18.23;;
6127;SDS011;7073;42.672;23.256;2024-01-15T12:30:33;35.08;;;17.27;;
6127;SDS011;7073;42.672;23.256;2024-01-15T12:33:02;32.13;;;13.95;;
6127;SDS011;7073;42.672;23.256;2024-01-15T12:35:30;37.33;;;17.55;;
6127;SDS011;7073;42.672;23.256;2024-01-15T12:37:57;34.72;;;16.30;;
6127;SDS011;7073;42.672;23.256;2024-01-15T12:40:27;34.45;;;16.52;;
6127;SDS011;7073;42.672;23.256;2024-01-15T12:42:54;36.65;;;16.33;;
6127;SDS011;7073;42.672;23.256;2024-01-15T12:45:21;31.40;;;15.68;;
6127;SDS011;7073;42.672;23.256;2024-01-15T12:47:48;30.20;;;15.38;;
6127;SDS011;7073;42.672;23.256;2024-01-15T12:50:16;32.88;;;14.55;;
6127;SDS011;7073;42.672;23.256;2024-01-15T12:52:43;30.60;;;15.35;;
6127;SDS011;7073;42.672;23.256;2024-01-15T12:55:11;32.35;;;16.20;;
6127;SDS011;7073;42.672;23.256;2024-01-15T12:57:41;31.42;;;16.65;;
6127;SDS011;7073;42.672;23.256;2024-01-15T13:00:08;38.58;;;17.58;;
6127;SDS011;7073;42.672;23.256;2024-01-15T13:02:37;37.60;;;16.90;;
6127;SDS011;7073;42.672;23.256;2024-01-15T13:05:07;38.65;;;17.23;;
6127;SDS011;7073;42.672;23.256;2024-01-15T13:07:36;33.35;;;15.13;;
6127;SDS011;7073;42.672;23.256;2024-01-15T13:10:03;35.13;;;16.08;;
6127;SDS011;7073;42.672;23.256;2024-01-15T13:12:30;42.72;;;16.60;;
6127;SDS011;7073;42.672;23.256;2024-01-15T13:15:00;37.13;;;18.63;;
6127;SDS011;7073;42.672;23.256;2024-01-15T13:17:28;30.70;;;15.77;;
6127;SDS011;7073;42.672;23.256;2024-01-15T13:19:55;39.65;;;18.88;;
6127;SDS011;7073;42.672;23.256;2024-01-15T13:22:22;35.30;;;16.08;;
6127;SDS011;7073;42.672;23.256;2024-01-15T13:24:54;43.42;;;21.02;;
6127;SDS011;7073;42.672;23.256;2024-01-15T13:27:21;35.35;;;15.80;;
6127;SDS011;7073;42.672;23.256;2024-01-15T13:29:49;35.25;;;15.73;;
6127;SDS011;7073;42.672;23.256;2024-01-15T13:32:20;35.25;;;16.38;;
6127;SDS011;7073;42.672;23.256;2024-01-15T13:34:50;44.80;;;19.42;;
6127;SDS011;7073;42.672;23.256;2024-01-15T13:37:17;40.25;;;17.70;;
6127;SDS011;7073;42.672;23.256;2024-01-15T13:39:44;42.05;;;18.02;;
6127;SDS011;7073;42.672;23.256;2024-01-15T13:42:12;37.42;;;19.92;;
6127;SDS011;7073;42.672;23.256;2024-01-15T13:44:40;34.17;;;16.92;;
6127;SDS011;7073;42.672;23.256;2024-01-15T13:47:07;36.38;;;17.20;;
6127;SDS011;7073;42.672;23.256;2024-01-15T13:49:35;36.25;;;17.85;;
6127;SDS011;7073;42.672;23.256;2024-01-15T13:52:03;38.03;;;16.90;;
6127;SDS011;7073;42.672;23.256;2024-01-15T13:54:31;42.28;;;18.45;;
6127;SDS011;7073;42.672;23.256;2024-01-15T13:56:58;44.33;;;20.13;;
6127;SDS011;7073;42.672;23.256;2024-01-15T13:59:26;40.65;;;20.05;;
6127;SDS011;7073;42.672;23.256;2024-01-15T14:01:53;45.22;;;20.05;;
6127;SDS011;7073;42.672;23.256;2024-01-15T14:04:21;44.15;;;18.38;;
6127;SDS011;7073;42.672;23.256;2024-01-15T14:06:49;40.70;;;18.35;;
6127;SDS011;7073;42.672;23.256;2024-01-15T14:09:16;40.50;;;20.50;;
6127;SDS011;7073;42.672;23.256;2024-01-15T14:11:43;39.65;;;19.92;;
6127;SDS011;7073;42.672;23.256;2024-01-15T14:14:10;39.25;;;19.05;;
6127;SDS011;7073;42.672;23.256;2024-01-15T14:16:37;40.67;;;19.23;;
6127;SDS011;7073;42.672;23.256;2024-01-15T14:19:04;39.70;;;18.25;;
6127;SDS011;7073;42.672;23.256;2024-01-15T14:24:02;33.65;;;16.85;;
6127;SDS011;7073;42.672;23.256;2024-01-15T14:26:30;35.42;;;18.50;;
6127;SDS011;7073;42.672;23.256;2024-01-15T14:28:57;43.50;;;18.70;;
6127;SDS011;7073;42.672;23.256;2024-01-15T14:31:26;37.78;;;19.00;;
6127;SDS011;7073;42.672;23.256;2024-01-15T14:33:53;44.80;;;22.05;;
6127;SDS011;7073;42.672;23.256;2024-01-15T14:36:21;42.83;;;21.23;;
6127;SDS011;7073;42.672;23.256;2024-01-15T14:38:48;47.88;;;21.73;;
6127;SDS011;7073;42.672;23.256;2024-01-15T14:41:17;45.50;;;22.88;;
6127;SDS011;7073;42.672;23.256;2024-01-15T14:43:45;63.97;;;27.77;;
6127;SDS011;7073;42.672;23.256;2024-01-15T14:46:12;54.55;;;25.52;;
6127;SDS011;7073;42.672;23.256;2024-01-15T14:48:39;46.92;;;22.38;;
6127;SDS011;7073;42.672;23.256;2024-01-15T14:51:08;45.70;;;21.45;;
6127;SDS011;7073;42.672;23.256;2024-01-15T14:53:36;38.97;;;19.70;;
6127;SDS011;7073;42.672;23.256;2024-01-15T14:56:04;48.15;;;21.83;;
6127;SDS011;7073;42.672;23.256;2024-01-15T14:58:32;44.63;;;22.45;;
6127;SDS011;7073;42.672;23.256;2024-01-15T15:00:58;59.00;;;27.83;;
6127;SDS011;7073;42.672;23.256;2024-01-15T15:03:25;62.85;;;30.15;;
6127;SDS011;7073;42.672;23.256;2024-01-15T15:05:52;51.33;;;24.77;;
6127;SDS011;7073;42.672;23.256;2024-01-15T15:08:19;53.83;;;25.55;;
6127;SDS011;7073;42.672;23.256;2024-01-15T15:10:49;41.88;;;18.67;;
6127;SDS011;7073;42.672;23.256;2024-01-15T15:13:16;51.53;;;23.13;;
6127;SDS011;7073;42.672;23.256;2024-01-15T15:15:45;47.60;;;22.90;;
6127;SDS011;7073;42.672;23.256;2024-01-15T15:18:12;54.05;;;27.33;;
6127;SDS011;7073;42.672;23.256;2024-01-15T15:20:39;54.72;;;26.38;;
6127;SDS011;7073;42.672;23.256;2024-01-15T15:23:06;59.20;;;26.52;;
6127;SDS011;7073;42.672;23.256;2024-01-15T15:25:34;54.25;;;26.15;;
6127;SDS011;7073;42.672;23.256;2024-01-15T15:28:01;57.03;;;26.90;;
6127;SDS011;7073;42.672;23.256;2024-01-15T15:30:30;65.47;;;30.55;;
6127;SDS011;7073;42.672;23.256;2024-01-15T15:33:01;63.22;;;28.35;;
6127;SDS011;7073;42.672;23.256;2024-01-15T15:35:30;87.97;;;38.20;;
6127;SDS011;7073;42.672;23.256;2024-01-15T15:38:04;80.60;;;35.85;;
6127;SDS011;7073;42.672;23.256;2024-01-15T15:40:35;79.53;;;36.58;;
6127;SDS011;7073;42.672;23.256;2024-01-15T15:43:03;73.65;;;31.85;;
6127;SDS011;7073;42.672;23.256;2024-01-15T15:45:31;63.58;;;28.67;;
6127;SDS011;7073;42.672;23.256;2024-01-15T15:47:58;72.47;;;33.20;;
6127;SDS011;7073;42.672;23.256;2024-01-15T15:50:27;28.30;;;15.52;;
6127;SDS011;7073;42.672;23.256;2024-01-15T15:52:56;38.83;;;17.75;;
6127;SDS011;7073;42.672;23.256;2024-01-15T15:55:27;59.88;;;29.05;;
6127;SDS011;7073;42.672;23.256;2024-01-15T15:57:54;68.45;;;30.77;;
6127;SDS011;7073;42.672;23.256;2024-01-15T16:00:22;60.58;;;27.67;;
6127;SDS011;7073;42.672;23.256;2024-01-15T16:02:52;65.90;;;29.27;;
6127;SDS011;7073;42.672;23.256;2024-01-15T16:05:23;73.55;;;30.77;;
6127;SDS011;7073;42.672;23.256;2024-01-15T16:07:54;75.47;;;32.65;;
6127;SDS011;7073;42.672;23.256;2024-01-15T16:10:25;54.67;;;25.48;;
6127;SDS011;7073;42.672;23.256;2024-01-15T16:12:53;48.17;;;23.30;;
6127;SDS011;7073;42.672;23.256;2024-01-15T16:15:21;46.05;;;21.80;;
6127;SDS011;7073;42.672;23.256;2024-01-15T16:17:49;61.10;;;24.52;;
6127;SDS011;7073;42.672;23.256;2024-01-15T16:20:17;63.65;;;29.58;;
6127;SDS011;7073;42.672;23.256;2024-01-15T16:22:47;65.65;;;30.30;;
6127;SDS011;7073;42.672;23.256;2024-01-15T16:25:16;68.47;;;32.38;;
6127;SDS011;7073;42.672;23.256;2024-01-15T16:27:49;70.57;;;31.38;;
6127;SDS011;7073;42.672;23.256;2024-01-15T16:30:21;81.40;;;35.10;;
6127;SDS011;7073;42.672;23.256;2024-01-15T16:32:50;70.05;;;32.30;;
6127;SDS011;7073;42.672;23.256;2024-01-15T16:35:19;68.00;;;30.40;;
6127;SDS011;7073;42.672;23.256;2024-01-15T16:37:54;71.63;;;32.10;;
6127;SDS011;7073;42.672;23.256;2024-01-15T16:40:25;57.05;;;28.33;;
6127;SDS011;7073;42.672;23.256;2024-01-15T16:45:21;60.90;;;25.92;;
6127;SDS011;7073;42.672;23.256;2024-01-15T16:48:03;58.42;;;26.27;;
6127;SDS011;7073;42.672;23.256;2024-01-15T16:50:37;48.85;;;22.95;;
6127;SDS011;7073;42.672;23.256;2024-01-15T16:53:19;53.28;;;22.75;;
6127;SDS011;7073;42.672;23.256;2024-01-15T16:55:54;54.25;;;27.05;;
6127;SDS011;7073;42.672;23.256;2024-01-15T16:58:37;74.65;;;30.92;;
6127;SDS011;7073;42.672;23.256;2024-01-15T17:01:09;60.95;;;27.02;;
6127;SDS011;7073;42.672;23.256;2024-01-15T17:03:39;69.40;;;30.63;;
6127;SDS011;7073;42.672;23.256;2024-01-15T17:06:11;65.25;;;29.85;;
6127;SDS011;7073;42.672;23.256;2024-01-15T17:08:39;57.15;;;27.35;;
6127;SDS011;7073;42.672;23.256;2024-01-15T17:11:08;61.45;;;28.92;;
6127;SDS011;7073;42.672;23.256;2024-01-15T17:13:39;53.00;;;27.25;;
6127;SDS011;7073;42.672;23.256;2024-01-15T17:16:06;108.30;;;41.63;;
6127;SDS011;7073;42.672;23.256;2024-01-15T17:18:34;137.52;;;49.53;;
6127;SDS011;7073;42.672;23.256;2024-01-15T17:21:04;77.70;;;34.65;;
6127;SDS011;7073;42.672;23.256;2024-01-15T17:23:32;75.70;;;32.50;;
6127;SDS011;7073;42.672;23.256;2024-01-15T17:26:04;35.67;;;15.82;;
6127;SDS011;7073;42.672;23.256;2024-01-15T17:28:33;51.05;;;26.17;;
6127;SDS011;7073;42.672;23.256;2024-01-15T17:31:03;52.20;;;25.60;;
6127;SDS011;7073;42.672;23.256;2024-01-15T17:33:32;54.35;;;25.98;;
6127;SDS011;7073;42.672;23.256;2024-01-15T17:35:59;50.30;;;22.77;;
6127;SDS011;7073;42.672;23.256;2024-01-15T17:38:27;39.85;;;19.58;;
6127;SDS011;7073;42.672;23.256;2024-01-15T17:40:54;50.13;;;25.15;;
6127;SDS011;7073;42.672;23.256;2024-01-15T17:43:22;31.67;;;17.15;;
6127;SDS011;7073;42.672;23.256;2024-01-15T17:45:51;55.45;;;25.60;;
6127;SDS011;7073;42.672;23.256;2024-01-15T17:48:20;42.22;;;20.15;;
6127;SDS011;7073;42.672;23.256;2024-01-15T17:50:48;58.45;;;24.42;;